sensor_id;sensor_type;location;lat;lon;timestamp;P1;durP1;ratioP1;P2;durP2;ratioP2
14736;SDS011;7459;53.590;10.062;2022-12-29T00:02:21;4.37;;;1.70;;
14736;SDS011;7459;53.590;10.062;2022-12-29T00:04:48;5.20;;;2.20;;
14736;SDS011;7459;53.590;10.062;2022-12-29T00:07:15;5.07;;;2.08;;
14736;SDS011;7459;53.590;10.062;2022-12-29T00:09:42;4.30;;;2.03;;
14736;SDS011;7459;53.590;10.062;2022-12-29T00:12:08;3.85;;;1.50;;
14736;SDS011;7459;53.590;10.062;2022-12-29T00:14:33;3.87;;;2.47;;
14736;SDS011;7459;53.590;10.062;2022-12-29T00:17:17;3.97;;;1.77;;
14736;SDS011;7459;53.590;10.062;2022-12-29T00:19:43;4.72;;;1.92;;
14736;SDS011;7459;53.590;10.062;2022-12-29T00:22:27;4.15;;;1.60;;
14736;SDS011;7459;53.590;10.062;2022-12-29T00:25:12;4.57;;;2.85;;
14736;SDS011;7459;53.590;10.062;2022-12-29T00:27:57;4.57;;;2.17;;
14736;SDS011;7459;53.590;10.062;2022-12-29T00:30:42;5.63;;;1.95;;
14736;SDS011;7459;53.590;10.062;2022-12-29T00:33:30;3.72;;;1.88;;
14736;SDS011;7459;53.590;10.062;2022-12-29T00:36:23;4.25;;;2.30;;
14736;SDS011;7459;53.590;10.062;2022-12-29T00:38:57;6.13;;;2.08;;
14736;SDS011;7459;53.590;10.062;2022-12-29T00:41:49;4.28;;;2.13;;
14736;SDS011;7459;53.590;10.062;2022-12-29T00:44:34;5.32;;;2.00;;
14736;SDS011;7459;53.590;10.062;2022-12-29T00:46:59;5.93;;;1.90;;
14736;SDS011;7459;53.590;10.062;2022-12-29T00:49:29;5.13;;;2.67;;
14736;SDS011;7459;53.590;10.062;2022-12-29T00:51:56;5.22;;;2.40;;
14736;SDS011;7459;53.590;10.062;2022-12-29T00:54:28;4.35;;;2.10;;
14736;SDS011;7459;53.590;10.062;2022-12-29T00:56:57;5.88;;;2.13;;
14736;SDS011;7459;53.590;10.062;2022-12-29T00:59:23;4.30;;;2.40;;
14736;SDS011;7459;53.590;10.062;2022-12-29T01:01:49;5.38;;;2.28;;
14736;SDS011;7459;53.590;10.062;2022-12-29T01:04:16;4.93;;;2.22;;
14736;SDS011;7459;53.590;10.062;2022-12-29T01:06:42;5.25;;;2.38;;
14736;SDS011;7459;53.590;10.062;2022-12-29T01:09:08;6.15;;;2.25;;
14736;SDS011;7459;53.590;10.062;2022-12-29T01:11:53;5.78;;;2.60;;
14736;SDS011;7459;53.590;10.062;2022-12-29T01:14:20;4.88;;;2.60;;
14736;SDS011;7459;53.590;10.062;2022-12-29T01:16:46;7.50;;;2.47;;
14736;SDS011;7459;53.590;10.062;2022-12-29T01:19:12;4.25;;;2.20;;
14736;SDS011;7459;53.590;10.062;2022-12-29T01:21:38;4.63;;;2.35;;
14736;SDS011;7459;53.590;10.062;2022-12-29T01:24:04;4.73;;;2.17;;
14736;SDS011;7459;53.590;10.062;2022-12-29T01:26:30;4.45;;;2.17;;
14736;SDS011;7459;53.590;10.062;2022-12-29T01:28:56;6.25;;;2.75;;
14736;SDS011;7459;53.590;10.062;2022-12-29T01:31:22;3.60;;;1.90;;
14736;SDS011;7459;53.590;10.062;2022-12-29T01:33:47;4.10;;;2.30;;
14736;SDS011;7459;53.590;10.062;2022-12-29T01:36:14;5.23;;;2.70;;
14736;SDS011;7459;53.590;10.062;2022-12-29T01:38:41;5.60;;;2.50;;
14736;SDS011;7459;53.590;10.062;2022-12-29T01:41:08;5.50;;;2.85;;
14736;SDS011;7459;53.590;10.062;2022-12-29T01:43:41;4.32;;;2.42;;
14736;SDS011;7459;53.590;10.062;2022-12-29T01:46:23;4.50;;;2.55;;
14736;SDS011;7459;53.590;10.062;2022-12-29T01:51:34;4.80;;;2.40;;
14736;SDS011;7459;53.590;10.062;2022-12-29T01:54:05;7.38;;;2.72;;
14736;SDS011;7459;53.590;10.062;2022-12-29T01:56:38;7.45;;;2.47;;
14736;SDS011;7459;53.590;10.062;2022-12-29T01:59:05;6.15;;;2.50;;
14736;SDS011;7459;53.590;10.062;2022-12-29T02:01:37;4.85;;;2.60;;
14736;SDS011;7459;53.590;10.062;2022-12-29T02:04:03;6.28;;;2.70;;
14736;SDS011;7459;53.590;10.062;2022-12-29T02:06:51;4.75;;;2.55;;
14736;SDS011;7459;53.590;10.062;2022-12-29T02:09:18;5.18;;;2.60;;
14736;SDS011;7459;53.590;10.062;2022-12-29T02:11:44;5.10;;;2.88;;
14736;SDS011;7459;53.590;10.062;2022-12-29T02:14:12;5.10;;;2.72;;
14736;SDS011;7459;53.590;10.062;2022-12-29T02:16:45;4.90;;;2.33;;
14736;SDS011;7459;53.590;10.062;2022-12-29T02:22:40;4.93;;;2.53;;
14736;SDS011;7459;53.590;10.062;2022-12-29T02:28:23;4.72;;;2.72;;
14736;SDS011;7459;53.590;10.062;2022-12-29T02:33:48;6.07;;;2.65;;
14736;SDS011;7459;53.590;10.062;2022-12-29T02:39:41;5.30;;;2.30;;
14736;SDS011;7459;53.590;10.062;2022-12-29T02:45:59;6.60;;;2.40;;
14736;SDS011;7459;53.590;10.062;2022-12-29T02:51:48;6.57;;;2.80;;
14736;SDS011;7459;53.590;10.062;2022-12-29T02:54:20;5.38;;;2.33;;
14736;SDS011;7459;53.590;10.062;2022-12-29T02:57:08;4.78;;;2.42;;
14736;SDS011;7459;53.590;10.062;2022-12-29T03:00:07;3.90;;;2.10;;
14736;SDS011;7459;53.590;10.062;2022-12-29T03:05:41;4.65;;;2.75;;
14736;SDS011;7459;53.590;10.062;2022-12-29T03:11:14;5.45;;;1.98;;
14736;SDS011;7459;53.590;10.062;2022-12-29T03:14:02;5.27;;;2.37;;
14736;SDS011;7459;53.590;10.062;2022-12-29T03:17:03;6.07;;;2.25;;
14736;SDS011;7459;53.590;10.062;2022-12-29T03:19:38;3.55;;;2.28;;
14736;SDS011;7459;53.590;10.062;2022-12-29T03:22:22;4.75;;;2.47;;
14736;SDS011;7459;53.590;10.062;2022-12-29T03:25:06;7.38;;;2.47;;
14736;SDS011;7459;53.590;10.062;2022-12-29T03:27:46;4.73;;;1.83;;
14736;SDS011;7459;53.590;10.062;2022-12-29T03:30:20;4.78;;;2.42;;
14736;SDS011;7459;53.590;10.062;2022-12-29T03:32:48;3.92;;;2.10;;
14736;SDS011;7459;53.590;10.062;2022-12-29T03:35:19;4.28;;;2.00;;
14736;SDS011;7459;53.590;10.062;2022-12-29T03:38:33;4.63;;;2.40;;
14736;SDS011;7459;53.590;10.062;2022-12-29T03:40:52;3.90;;;1.80;;
14736;SDS011;7459;53.590;10.062;2022-12-29T03:43:22;5.15;;;2.00;;
14736;SDS011;7459;53.590;10.062;2022-12-29T03:45:48;4.40;;;2.45;;
14736;SDS011;7459;53.590;10.062;2022-12-29T03:48:14;5.27;;;2.30;;
14736;SDS011;7459;53.590;10.062;2022-12-29T03:50:40;3.50;;;1.73;;
14736;SDS011;7459;53.590;10.062;2022-12-29T03:53:06;4.50;;;2.03;;
14736;SDS011;7459;53.590;10.062;2022-12-29T03:55:31;3.47;;;1.50;;
14736;SDS011;7459;53.590;10.062;2022-12-29T03:57:57;3.67;;;2.08;;
14736;SDS011;7459;53.590;10.062;2022-12-29T04:00:23;4.78;;;2.00;;
14736;SDS011;7459;53.590;10.062;2022-12-29T04:02:49;4.00;;;2.13;;
14736;SDS011;7459;53.590;10.062;2022-12-29T04:05:14;3.20;;;1.90;;
14736;SDS011;7459;53.590;10.062;2022-12-29T04:07:40;4.30;;;2.20;;
14736;SDS011;7459;53.590;10.062;2022-12-29T04:10:06;4.33;;;2.00;;
14736;SDS011;7459;53.590;10.062;2022-12-29T04:12:32;3.47;;;1.50;;
14736;SDS011;7459;53.590;10.062;2022-12-29T04:14:57;3.75;;;1.75;;
14736;SDS011;7459;53.590;10.062;2022-12-29T04:17:23;4.17;;;2.40;;
14736;SDS011;7459;53.590;10.062;2022-12-29T04:19:50;3.10;;;1.30;;
14736;SDS011;7459;53.590;10.062;2022-12-29T04:22:15;2.90;;;1.27;;
14736;SDS011;7459;53.590;10.062;2022-12-29T04:24:41;5.82;;;1.70;;
14736;SDS011;7459;53.590;10.062;2022-12-29T04:27:07;2.93;;;1.27;;
14736;SDS011;7459;53.590;10.062;2022-12-29T04:29:32;3.60;;;1.65;;
14736;SDS011;7459;53.590;10.062;2022-12-29T04:31:58;4.27;;;1.47;;
14736;SDS011;7459;53.590;10.062;2022-12-29T04:34:24;4.45;;;1.67;;
14736;SDS011;7459;53.590;10.062;2022-12-29T04:36:49;4.20;;;1.50;;
14736;SDS011;7459;53.590;10.062;2022-12-29T04:39:15;5.25;;;1.80;;
14736;SDS011;7459;53.590;10.062;2022-12-29T04:41:41;5.13;;;1.50;;
14736;SDS011;7459;53.590;10.062;2022-12-29T04:44:06;3.20;;;1.40;;
14736;SDS011;7459;53.590;10.062;2022-12-29T04:46:32;3.92;;;1.42;;
14736;SDS011;7459;53.590;10.062;2022-12-29T04:48:58;4.27;;;1.53;;
14736;SDS011;7459;53.590;10.062;2022-12-29T04:51:25;3.20;;;1.10;;
14736;SDS011;7459;53.590;10.062;2022-12-29T04:53:51;4.33;;;1.57;;
14736;SDS011;7459;53.590;10.062;2022-12-29T04:56:16;3.90;;;1.73;;
14736;SDS011;7459;53.590;10.062;2022-12-29T04:58:42;3.60;;;1.27;;
14736;SDS011;7459;53.590;10.062;2022-12-29T05:01:08;3.13;;;1.27;;
14736;SDS011;7459;53.590;10.062;2022-12-29T05:03:33;4.93;;;1.50;;
14736;SDS011;7459;53.590;10.062;2022-12-29T05:05:59;6.45;;;1.73;;
14736;SDS011;7459;53.590;10.062;2022-12-29T05:08:25;5.10;;;1.60;;
14736;SDS011;7459;53.590;10.062;2022-12-29T05:10:50;4.70;;;1.70;;
14736;SDS011;7459;53.590;10.062;2022-12-29T05:13:17;4.18;;;1.55;;
14736;SDS011;7459;53.590;10.062;2022-12-29T05:15:47;2.95;;;1.20;;
14736;SDS011;7459;53.590;10.062;2022-12-29T05:18:18;2.97;;;0.93;;
14736;SDS011;7459;53.590;10.062;2022-12-29T05:20:45;3.13;;;1.20;;
14736;SDS011;7459;53.590;10.062;2022-12-29T05:23:11;3.40;;;1.00;;
14736;SDS011;7459;53.590;10.062;2022-12-29T05:25:37;2.13;;;1.03;;
14736;SDS011;7459;53.590;10.062;2022-12-29T05:28:03;3.63;;;1.10;;
14736;SDS011;7459;53.590;10.062;2022-12-29T05:30:29;3.03;;;1.10;;
14736;SDS011;7459;53.590;10.062;2022-12-29T05:32:54;2.55;;;1.10;;
14736;SDS011;7459;53.590;10.062;2022-12-29T05:35:20;2.33;;;0.93;;
14736;SDS011;7459;53.590;10.062;2022-12-29T05:37:46;3.65;;;1.20;;
14736;SDS011;7459;53.590;10.062;2022-12-29T05:40:11;3.37;;;1.20;;
14736;SDS011;7459;53.590;10.062;2022-12-29T05:42:37;3.03;;;1.30;;
14736;SDS011;7459;53.590;10.062;2022-12-29T05:45:03;2.67;;;1.43;;
14736;SDS011;7459;53.590;10.062;2022-12-29T05:47:32;3.30;;;1.20;;
14736;SDS011;7459;53.590;10.062;2022-12-29T05:49:58;2.78;;;1.10;;
14736;SDS011;7459;53.590;10.062;2022-12-29T05:52:23;4.07;;;1.47;;
14736;SDS011;7459;53.590;10.062;2022-12-29T05:54:49;2.63;;;1.00;;
14736;SDS011;7459;53.590;10.062;2022-12-29T05:57:15;2.80;;;1.00;;
14736;SDS011;7459;53.590;10.062;2022-12-29T05:59:40;2.78;;;1.33;;
14736;SDS011;7459;53.590;10.062;2022-12-29T06:02:06;3.10;;;1.63;;
14736;SDS011;7459;53.590;10.062;2022-12-29T06:04:32;4.18;;;1.60;;
14736;SDS011;7459;53.590;10.062;2022-12-29T06:06:57;2.50;;;1.10;;
14736;SDS011;7459;53.590;10.062;2022-12-29T06:09:23;6.03;;;1.83;;
14736;SDS011;7459;53.590;10.062;2022-12-29T06:11:49;2.60;;;1.10;;
14736;SDS011;7459;53.590;10.062;2022-12-29T06:14:14;2.33;;;0.90;;
14736;SDS011;7459;53.590;10.062;2022-12-29T06:16:40;2.65;;;1.38;;
14736;SDS011;7459;53.590;10.062;2022-12-29T06:19:06;3.10;;;1.65;;
14736;SDS011;7459;53.590;10.062;2022-12-29T06:21:32;2.50;;;1.10;;
14736;SDS011;7459;53.590;10.062;2022-12-29T06:23:58;2.55;;;1.10;;
14736;SDS011;7459;53.590;10.062;2022-12-29T06:26:23;3.17;;;1.40;;
14736;SDS011;7459;53.590;10.062;2022-12-29T06:28:49;2.37;;;1.20;;
14736;SDS011;7459;53.590;10.062;2022-12-29T06:31:15;3.25;;;1.05;;
14736;SDS011;7459;53.590;10.062;2022-12-29T06:33:40;3.15;;;0.80;;
14736;SDS011;7459;53.590;10.062;2022-12-29T06:36:06;2.45;;;1.00;;
14736;SDS011;7459;53.590;10.062;2022-12-29T06:38:32;2.90;;;1.23;;
14736;SDS011;7459;53.590;10.062;2022-12-29T06:40:58;2.80;;;1.10;;
14736;SDS011;7459;53.590;10.062;2022-12-29T06:43:23;2.35;;;0.80;;
14736;SDS011;7459;53.590;10.062;2022-12-29T06:45:49;2.40;;;0.80;;
14736;SDS011;7459;53.590;10.062;2022-12-29T06:48:15;3.13;;;0.95;;
14736;SDS011;7459;53.590;10.062;2022-12-29T06:50:40;2.50;;;0.90;;
14736;SDS011;7459;53.590;10.062;2022-12-29T06:53:06;2.10;;;0.82;;
14736;SDS011;7459;53.590;10.062;2022-12-29T06:55:32;2.53;;;1.13;;
14736;SDS011;7459;53.590;10.062;2022-12-29T06:57:58;2.40;;;0.80;;
14736;SDS011;7459;53.590;10.062;2022-12-29T07:00:25;2.43;;;0.80;;
14736;SDS011;7459;53.590;10.062;2022-12-29T07:02:50;2.45;;;1.17;;
14736;SDS011;7459;53.590;10.062;2022-12-29T07:05:17;2.28;;;0.95;;
14736;SDS011;7459;53.590;10.062;2022-12-29T07:07:42;2.10;;;0.60;;
14736;SDS011;7459;53.590;10.062;2022-12-29T07:10:08;4.20;;;0.90;;
14736;SDS011;7459;53.590;10.062;2022-12-29T07:12:34;3.63;;;0.93;;
14736;SDS011;7459;53.590;10.062;2022-12-29T07:15:00;2.38;;;0.68;;
14736;SDS011;7459;53.590;10.062;2022-12-29T07:17:25;3.20;;;0.80;;
14736;SDS011;7459;53.590;10.062;2022-12-29T07:19:51;3.20;;;0.80;;
14736;SDS011;7459;53.590;10.062;2022-12-29T07:22:17;2.00;;;0.80;;
14736;SDS011;7459;53.590;10.062;2022-12-29T07:24:42;2.43;;;0.90;;
14736;SDS011;7459;53.590;10.062;2022-12-29T07:27:08;2.80;;;0.63;;
14736;SDS011;7459;53.590;10.062;2022-12-29T07:29:36;2.92;;;0.95;;
14736;SDS011;7459;53.590;10.062;2022-12-29T07:32:03;3.83;;;1.20;;
14736;SDS011;7459;53.590;10.062;2022-12-29T07:34:29;2.63;;;1.00;;
14736;SDS011;7459;53.590;10.062;2022-12-29T07:36:55;4.47;;;1.13;;
14736;SDS011;7459;53.590;10.062;2022-12-29T07:39:20;2.47;;;1.20;;
14736;SDS011;7459;53.590;10.062;2022-12-29T07:41:46;2.95;;;0.90;;
14736;SDS011;7459;53.590;10.062;2022-12-29T07:44:12;3.00;;;0.87;;
14736;SDS011;7459;53.590;10.062;2022-12-29T07:46:38;2.28;;;1.00;;
14736;SDS011;7459;53.590;10.062;2022-12-29T07:49:03;3.37;;;1.10;;
14736;SDS011;7459;53.590;10.062;2022-12-29T07:51:29;2.78;;;1.00;;
14736;SDS011;7459;53.590;10.062;2022-12-29T07:53:55;2.80;;;1.30;;
14736;SDS011;7459;53.590;10.062;2022-12-29T07:56:20;5.47;;;1.73;;
14736;SDS011;7459;53.590;10.062;2022-12-29T07:58:46;2.73;;;1.23;;
14736;SDS011;7459;53.590;10.062;2022-12-29T08:01:11;4.40;;;1.30;;
14736;SDS011;7459;53.590;10.062;2022-12-29T08:03:37;3.27;;;1.10;;
14736;SDS011;7459;53.590;10.062;2022-12-29T08:06:06;3.90;;;1.40;;
14736;SDS011;7459;53.590;10.062;2022-12-29T08:08:35;3.67;;;1.13;;
14736;SDS011;7459;53.590;10.062;2022-12-29T08:11:01;3.20;;;1.20;;
14736;SDS011;7459;53.590;10.062;2022-12-29T08:13:26;3.47;;;1.10;;
14736;SDS011;7459;53.590;10.062;2022-12-29T08:15:52;2.07;;;0.73;;
14736;SDS011;7459;53.590;10.062;2022-12-29T08:18:18;3.47;;;1.00;;
14736;SDS011;7459;53.590;10.062;2022-12-29T08:20:43;2.60;;;0.73;;
14736;SDS011;7459;53.590;10.062;2022-12-29T08:23:09;3.63;;;1.13;;
14736;SDS011;7459;53.590;10.062;2022-12-29T08:25:35;1.40;;;0.50;;
14736;SDS011;7459;53.590;10.062;2022-12-29T08:28:01;2.28;;;0.65;;
14736;SDS011;7459;53.590;10.062;2022-12-29T08:30:26;2.50;;;0.70;;
14736;SDS011;7459;53.590;10.062;2022-12-29T08:32:52;2.20;;;0.80;;
14736;SDS011;7459;53.590;10.062;2022-12-29T08:35:18;2.10;;;1.00;;
14736;SDS011;7459;53.590;10.062;2022-12-29T08:37:44;3.40;;;0.98;;
14736;SDS011;7459;53.590;10.062;2022-12-29T08:40:10;2.43;;;0.93;;
14736;SDS011;7459;53.590;10.062;2022-12-29T08:42:35;2.78;;;1.00;;
14736;SDS011;7459;53.590;10.062;2022-12-29T08:45:01;2.08;;;0.85;;
14736;SDS011;7459;53.590;10.062;2022-12-29T08:47:27;4.20;;;1.70;;
14736;SDS011;7459;53.590;10.062;2022-12-29T08:49:53;4.15;;;1.00;;
14736;SDS011;7459;53.590;10.062;2022-12-29T08:52:19;3.13;;;0.70;;
14736;SDS011;7459;53.590;10.062;2022-12-29T08:54:45;2.60;;;1.40;;
14736;SDS011;7459;53.590;10.062;2022-12-29T08:57:10;2.42;;;0.80;;
14736;SDS011;7459;53.590;10.062;2022-12-29T08:59:36;3.20;;;1.07;;
14736;SDS011;7459;53.590;10.062;2022-12-29T09:02:02;4.60;;;0.82;;
14736;SDS011;7459;53.590;10.062;2022-12-29T09:04:27;2.13;;;0.80;;
14736;SDS011;7459;53.590;10.062;2022-12-29T09:06:53;2.85;;;0.85;;
14736;SDS011;7459;53.590;10.062;2022-12-29T09:09:19;2.13;;;0.80;;
14736;SDS011;7459;53.590;10.062;2022-12-29T09:11:45;2.10;;;0.63;;
14736;SDS011;7459;53.590;10.062;2022-12-29T09:14:11;3.40;;;1.25;;
14736;SDS011;7459;53.590;10.062;2022-12-29T09:16:38;3.08;;;0.77;;
14736;SDS011;7459;53.590;10.062;2022-12-29T09:19:04;3.20;;;0.67;;
14736;SDS011;7459;53.590;10.062;2022-12-29T09:21:30;2.33;;;0.68;;
14736;SDS011;7459;53.590;10.062;2022-12-29T09:23:56;2.30;;;0.70;;
14736;SDS011;7459;53.590;10.062;2022-12-29T09:26:21;3.23;;;0.50;;
14736;SDS011;7459;53.590;10.062;2022-12-29T09:28:47;2.15;;;0.90;;
14736;SDS011;7459;53.590;10.062;2022-12-29T09:31:13;1.93;;;0.63;;
14736;SDS011;7459;53.590;10.062;2022-12-29T09:33:39;3.70;;;0.50;;
14736;SDS011;7459;53.590;10.062;2022-12-29T09:36:05;3.20;;;0.50;;
14736;SDS011;7459;53.590;10.062;2022-12-29T09:38:31;1.65;;;0.60;;
14736;SDS011;7459;53.590;10.062;2022-12-29T09:41:20;4.68;;;0.63;;
14736;SDS011;7459;53.590;10.062;2022-12-29T09:47:09;1.90;;;0.30;;
14736;SDS011;7459;53.590;10.062;2022-12-29T09:52:34;7.97;;;0.75;;
14736;SDS011;7459;53.590;10.062;2022-12-29T09:55:13;2.67;;;0.55;;
14736;SDS011;7459;53.590;10.062;2022-12-29T09:57:45;2.55;;;0.50;;
14736;SDS011;7459;53.590;10.062;2022-12-29T10:00:48;3.73;;;0.50;;
14736;SDS011;7459;53.590;10.062;2022-12-29T10:03:48;3.75;;;0.77;;
14736;SDS011;7459;53.590;10.062;2022-12-29T10:20:28;6.07;;;0.52;;
14736;SDS011;7459;53.590;10.062;2022-12-29T10:23:05;3.42;;;0.40;;
14736;SDS011;7459;53.590;10.062;2022-12-29T10:25:59;6.10;;;0.90;;
14736;SDS011;7459;53.590;10.062;2022-12-29T10:28:33;3.07;;;0.50;;
14736;SDS011;7459;53.590;10.062;2022-12-29T10:31:02;4.53;;;0.50;;
14736;SDS011;7459;53.590;10.062;2022-12-29T10:33:39;6.18;;;0.50;;
14736;SDS011;7459;53.590;10.062;2022-12-29T10:39:21;4.57;;;0.50;;
14736;SDS011;7459;53.590;10.062;2022-12-29T10:45:02;7.47;;;0.93;;
14736;SDS011;7459;53.590;10.062;2022-12-29T10:47:34;3.92;;;0.65;;
14736;SDS011;7459;53.590;10.062;2022-12-29T10:50:04;3.63;;;0.63;;
14736;SDS011;7459;53.590;10.062;2022-12-29T10:52:31;4.00;;;0.90;;
14736;SDS011;7459;53.590;10.062;2022-12-29T10:55:02;5.70;;;0.67;;
14736;SDS011;7459;53.590;10.062;2022-12-29T10:57:41;5.45;;;0.50;;
14736;SDS011;7459;53.590;10.062;2022-12-29T11:00:17;4.18;;;0.70;;
14736;SDS011;7459;53.590;10.062;2022-12-29T11:08:16;3.13;;;0.50;;
14736;SDS011;7459;53.590;10.062;2022-12-29T11:10:45;5.97;;;0.65;;
14736;SDS011;7459;53.590;10.062;2022-12-29T11:13:30;7.80;;;1.10;;
14736;SDS011;7459;53.590;10.062;2022-12-29T11:16:56;4.63;;;0.40;;
14736;SDS011;7459;53.590;10.062;2022-12-29T11:19:22;5.65;;;0.60;;
14736;SDS011;7459;53.590;10.062;2022-12-29T11:21:50;6.60;;;0.50;;
14736;SDS011;7459;53.590;10.062;2022-12-29T11:24:21;8.13;;;0.90;;
14736;SDS011;7459;53.590;10.062;2022-12-29T11:26:51;6.63;;;0.30;;
14736;SDS011;7459;53.590;10.062;2022-12-29T11:32:10;4.13;;;0.50;;
14736;SDS011;7459;53.590;10.062;2022-12-29T11:34:42;3.67;;;0.60;;
14736;SDS011;7459;53.590;10.062;2022-12-29T11:37:12;2.67;;;0.45;;
14736;SDS011;7459;53.590;10.062;2022-12-29T11:40:16;5.15;;;0.60;;
14736;SDS011;7459;53.590;10.062;2022-12-29T11:45:18;7.13;;;0.50;;
14736;SDS011;7459;53.590;10.062;2022-12-29T11:47:47;5.28;;;0.40;;
14736;SDS011;7459;53.590;10.062;2022-12-29T11:50:23;4.32;;;0.43;;
14736;SDS011;7459;53.590;10.062;2022-12-29T11:52:58;3.55;;;0.30;;
14736;SDS011;7459;53.590;10.062;2022-12-29T11:56:05;5.35;;;0.93;;
14736;SDS011;7459;53.590;10.062;2022-12-29T11:58:35;4.72;;;0.30;;
14736;SDS011;7459;53.590;10.062;2022-12-29T12:03:40;5.15;;;0.63;;
14736;SDS011;7459;53.590;10.062;2022-12-29T12:06:25;2.45;;;0.30;;
14736;SDS011;7459;53.590;10.062;2022-12-29T12:08:56;4.20;;;0.50;;
14736;SDS011;7459;53.590;10.062;2022-12-29T12:11:29;2.33;;;0.30;;
14736;SDS011;7459;53.590;10.062;2022-12-29T12:16:43;4.80;;;0.50;;
14736;SDS011;7459;53.590;10.062;2022-12-29T12:19:20;3.47;;;0.47;;
14736;SDS011;7459;53.590;10.062;2022-12-29T12:22:30;5.30;;;0.65;;
14736;SDS011;7459;53.590;10.062;2022-12-29T12:25:23;3.22;;;0.47;;
14736;SDS011;7459;53.590;10.062;2022-12-29T12:28:15;3.33;;;0.90;;
14736;SDS011;7459;53.590;10.062;2022-12-29T12:30:53;3.20;;;0.40;;
14736;SDS011;7459;53.590;10.062;2022-12-29T12:33:23;3.17;;;0.57;;
14736;SDS011;7459;53.590;10.062;2022-12-29T12:36:02;6.38;;;0.65;;
14736;SDS011;7459;53.590;10.062;2022-12-29T12:38:52;4.00;;;0.63;;
14736;SDS011;7459;53.590;10.062;2022-12-29T12:51:15;8.73;;;0.90;;
14736;SDS011;7459;53.590;10.062;2022-12-29T12:59:52;3.70;;;0.40;;
14736;SDS011;7459;53.590;10.062;2022-12-29T13:08:39;10.87;;;1.13;;
14736;SDS011;7459;53.590;10.062;2022-12-29T13:11:35;4.15;;;0.55;;
14736;SDS011;7459;53.590;10.062;2022-12-29T13:14:17;3.00;;;0.60;;
14736;SDS011;7459;53.590;10.062;2022-12-29T13:17:32;4.03;;;0.70;;
14736;SDS011;7459;53.590;10.062;2022-12-29T13:20:31;5.07;;;0.93;;
14736;SDS011;7459;53.590;10.062;2022-12-29T13:26:42;6.18;;;0.60;;
14736;SDS011;7459;53.590;10.062;2022-12-29T13:29:18;6.95;;;0.50;;
14736;SDS011;7459;53.590;10.062;2022-12-29T13:32:15;7.13;;;0.73;;
14736;SDS011;7459;53.590;10.062;2022-12-29T13:34:56;3.50;;;0.80;;
14736;SDS011;7459;53.590;10.062;2022-12-29T13:37:58;4.27;;;0.50;;
14736;SDS011;7459;53.590;10.062;2022-12-29T13:40:34;5.30;;;0.77;;
14736;SDS011;7459;53.590;10.062;2022-12-29T13:43:08;8.27;;;0.65;;
14736;SDS011;7459;53.590;10.062;2022-12-29T13:45:34;5.63;;;0.60;;
14736;SDS011;7459;53.590;10.062;2022-12-29T13:50:42;4.97;;;0.70;;
14736;SDS011;7459;53.590;10.062;2022-12-29T13:56:42;6.15;;;0.70;;
14736;SDS011;7459;53.590;10.062;2022-12-29T13:59:19;4.53;;;0.65;;
14736;SDS011;7459;53.590;10.062;2022-12-29T14:02:07;4.03;;;0.43;;
14736;SDS011;7459;53.590;10.062;2022-12-29T14:05:15;2.95;;;0.70;;
14736;SDS011;7459;53.590;10.062;2022-12-29T14:07:48;4.47;;;0.47;;
14736;SDS011;7459;53.590;10.062;2022-12-29T14:10:26;5.07;;;0.60;;
14736;SDS011;7459;53.590;10.062;2022-12-29T14:13:22;6.47;;;0.30;;
14736;SDS011;7459;53.590;10.062;2022-12-29T14:15:50;2.35;;;0.40;;
14736;SDS011;7459;53.590;10.062;2022-12-29T14:18:19;5.07;;;0.40;;
14736;SDS011;7459;53.590;10.062;2022-12-29T14:20:50;4.03;;;0.35;;
14736;SDS011;7459;53.590;10.062;2022-12-29T14:26:10;6.13;;;0.50;;
14736;SDS011;7459;53.590;10.062;2022-12-29T14:28:42;2.35;;;0.68;;
14736;SDS011;7459;53.590;10.062;2022-12-29T14:34:14;4.95;;;0.43;;
14736;SDS011;7459;53.590;10.062;2022-12-29T14:36:37;3.67;;;0.60;;
14736;SDS011;7459;53.590;10.062;2022-12-29T14:44:45;3.38;;;0.40;;
14736;SDS011;7459;53.590;10.062;2022-12-29T14:47:16;7.55;;;1.00;;
14736;SDS011;7459;53.590;10.062;2022-12-29T14:49:57;6.15;;;0.43;;
14736;SDS011;7459;53.590;10.062;2022-12-29T14:52:49;7.10;;;1.00;;
14736;SDS011;7459;53.590;10.062;2022-12-29T14:58:46;4.53;;;0.93;;
14736;SDS011;7459;53.590;10.062;2022-12-29T15:01:22;4.05;;;0.55;;
14736;SDS011;7459;53.590;10.062;2022-12-29T15:04:05;4.47;;;0.43;;
14736;SDS011;7459;53.590;10.062;2022-12-29T15:06:55;7.00;;;0.43;;
14736;SDS011;7459;53.590;10.062;2022-12-29T15:09:35;3.22;;;0.65;;
14736;SDS011;7459;53.590;10.062;2022-12-29T15:12:18;3.33;;;0.70;;
14736;SDS011;7459;53.590;10.062;2022-12-29T15:14:58;6.88;;;0.80;;
14736;SDS011;7459;53.590;10.062;2022-12-29T15:17:31;6.15;;;0.70;;
14736;SDS011;7459;53.590;10.062;2022-12-29T15:20:00;4.10;;;0.75;;
14736;SDS011;7459;53.590;10.062;2022-12-29T15:22:56;6.30;;;0.60;;
14736;SDS011;7459;53.590;10.062;2022-12-29T15:25:46;3.78;;;0.47;;
14736;SDS011;7459;53.590;10.062;2022-12-29T15:28:36;7.57;;;0.93;;
14736;SDS011;7459;53.590;10.062;2022-12-29T15:31:20;4.43;;;0.65;;
14736;SDS011;7459;53.590;10.062;2022-12-29T15:33:49;8.93;;;1.10;;
14736;SDS011;7459;53.590;10.062;2022-12-29T15:36:25;4.18;;;0.50;;
14736;SDS011;7459;53.590;10.062;2022-12-29T15:38:53;4.75;;;0.75;;
14736;SDS011;7459;53.590;10.062;2022-12-29T15:41:37;5.95;;;1.05;;
14736;SDS011;7459;53.590;10.062;2022-12-29T15:44:26;6.75;;;1.13;;
14736;SDS011;7459;53.590;10.062;2022-12-29T15:47:06;5.63;;;0.80;;
14736;SDS011;7459;53.590;10.062;2022-12-29T15:49:44;4.60;;;0.77;;
14736;SDS011;7459;53.590;10.062;2022-12-29T15:52:17;4.47;;;1.08;;
14736;SDS011;7459;53.590;10.062;2022-12-29T15:54:50;4.85;;;0.93;;
14736;SDS011;7459;53.590;10.062;2022-12-29T15:57:25;5.40;;;1.13;;
14736;SDS011;7459;53.590;10.062;2022-12-29T15:59:52;5.90;;;1.30;;
14736;SDS011;7459;53.590;10.062;2022-12-29T16:02:19;3.90;;;1.00;;
14736;SDS011;7459;53.590;10.062;2022-12-29T16:04:47;5.18;;;0.88;;
14736;SDS011;7459;53.590;10.062;2022-12-29T16:07:24;6.25;;;1.00;;
14736;SDS011;7459;53.590;10.062;2022-12-29T16:09:57;3.47;;;0.70;;
14736;SDS011;7459;53.590;10.062;2022-12-29T16:12:32;5.72;;;0.75;;
14736;SDS011;7459;53.590;10.062;2022-12-29T16:15:01;10.00;;;1.33;;
14736;SDS011;7459;53.590;10.062;2022-12-29T16:17:45;9.15;;;1.10;;
14736;SDS011;7459;53.590;10.062;2022-12-29T16:20:16;5.20;;;0.98;;
14736;SDS011;7459;53.590;10.062;2022-12-29T16:22:46;8.63;;;1.23;;
14736;SDS011;7459;53.590;10.062;2022-12-29T16:25:24;4.28;;;1.13;;
14736;SDS011;7459;53.590;10.062;2022-12-29T16:27:59;6.68;;;1.00;;
14736;SDS011;7459;53.590;10.062;2022-12-29T16:30:27;10.25;;;1.30;;
14736;SDS011;7459;53.590;10.062;2022-12-29T16:32:57;5.40;;;1.00;;
14736;SDS011;7459;53.590;10.062;2022-12-29T16:35:27;5.20;;;1.13;;
14736;SDS011;7459;53.590;10.062;2022-12-29T16:48:28;3.77;;;1.20;;
14736;SDS011;7459;53.590;10.062;2022-12-29T16:53:58;10.32;;;1.95;;
14736;SDS011;7459;53.590;10.062;2022-12-29T16:56:26;8.85;;;1.77;;
14736;SDS011;7459;53.590;10.062;2022-12-29T16:59:03;9.25;;;1.83;;
14736;SDS011;7459;53.590;10.062;2022-12-29T17:01:34;8.10;;;1.60;;
14736;SDS011;7459;53.590;10.062;2022-12-29T17:04:04;10.05;;;1.60;;
14736;SDS011;7459;53.590;10.062;2022-12-29T17:06:33;6.22;;;1.15;;
14736;SDS011;7459;53.590;10.062;2022-12-29T17:08:58;6.70;;;1.53;;
14736;SDS011;7459;53.590;10.062;2022-12-29T17:11:28;5.95;;;1.50;;
14736;SDS011;7459;53.590;10.062;2022-12-29T17:14:34;6.60;;;1.45;;
14736;SDS011;7459;53.590;10.062;2022-12-29T17:17:15;6.43;;;1.38;;
14736;SDS011;7459;53.590;10.062;2022-12-29T17:20:03;8.55;;;1.40;;
14736;SDS011;7459;53.590;10.062;2022-12-29T17:22:41;10.43;;;1.83;;
14736;SDS011;7459;53.590;10.062;2022-12-29T17:25:10;7.00;;;1.23;;
14736;SDS011;7459;53.590;10.062;2022-12-29T17:27:40;7.20;;;1.55;;
14736;SDS011;7459;53.590;10.062;2022-12-29T17:30:17;6.47;;;1.60;;